sensor_id;sensor_type;location;lat;lon;timestamp;temperature;humidity
21637;DHT22;10980;49.596;6.142;2023-02-15T11:46:57;19.80;66.20
21637;DHT22;10980;49.596;6.142;2023-02-15T11:50:32;8.40;77.00
21637;DHT22;10980;49.596;6.142;2023-02-15T11:53:54;5.60;89.50
21637;DHT22;10980;49.596;6.142;2023-02-15T11:57:28;4.90;91.90
21637;DHT22;10980;49.596;6.142;2023-02-15T12:04:43;4.90;92.30
21637;DHT22;10980;49.596;6.142;2023-02-15T12:08:22;4.30;93.60
21637;DHT22;10980;49.596;6.142;2023-02-15T12:11:45;4.20;95.30
21637;DHT22;10980;49.596;6.142;2023-02-15T12:15:09;4.70;94.30
21637;DHT22;10980;49.596;6.142;2023-02-15T12:18:43;4.70;94.00
21637;DHT22;10980;49.596;6.142;2023-02-15T12:25:56;4.80;93.20
21637;DHT22;10980;49.596;6.142;2023-02-15T12:29:23;4.80;93.50
21637;DHT22;10980;49.596;6.142;2023-02-15T12:32:56;4.90;93.70
21637;DHT22;10980;49.596;6.142;2023-02-15T12:36:29;4.80;93.80
21637;DHT22;10980;49.596;6.142;2023-02-15T12:40:17;5.00;93.40
21637;DHT22;10980;49.596;6.142;2023-02-15T12:43:42;5.00;93.40
21637;DHT22;10980;49.596;6.142;2023-02-15T12:47:24;5.10;93.20
21637;DHT22;10980;49.596;6.142;2023-02-15T12:50:51;5.20;93.60
21637;DHT22;10980;49.596;6.142;2023-02-15T12:54:40;5.20;93.60
21637;DHT22;10980;49.596;6.142;2023-02-15T12:58:07;5.30;92.70
21637;DHT22;10980;49.596;6.142;2023-02-15T13:01:32;5.50;92.60
21637;DHT22;10980;49.596;6.142;2023-02-15T13:04:56;5.50;92.70
21637;DHT22;10980;49.596;6.142;2023-02-15T13:08:30;5.50;93.10
21637;DHT22;10980;49.596;6.142;2023-02-15T13:12:20;5.60;92.80
21637;DHT22;10980;49.596;6.142;2023-02-15T13:15:49;5.70;93.10
21637;DHT22;10980;49.596;6.142;2023-02-15T13:22:44;5.60;93.20
21637;DHT22;10980;49.596;6.142;2023-02-15T13:26:20;5.60;93.20
21637;DHT22;10980;49.596;6.142;2023-02-15T13:29:48;5.60;93.40
21637;DHT22;10980;49.596;6.142;2023-02-15T13:33:51;5.70;93.30
21637;DHT22;10980;49.596;6.142;2023-02-15T13:50:06;6.10;93.20
21637;DHT22;10980;49.596;6.142;2023-02-15T14:06:32;6.30;93.10
21637;DHT22;10980;49.596;6.142;2023-02-15T14:18:39;6.70;92.10
21637;DHT22;10980;49.596;6.142;2023-02-15T14:22:25;6.70;91.80
21637;DHT22;10980;49.596;6.142;2023-02-15T14:33:07;6.80;92.30
21637;DHT22;10980;49.596;6.142;2023-02-15T14:36:53;6.70;92.30
21637;DHT22;10980;49.596;6.142;2023-02-15T14:44:40;6.80;92.40
21637;DHT22;10980;49.596;6.142;2023-02-15T14:48:38;6.70;92.70
21637;DHT22;10980;49.596;6.142;2023-02-15T14:52:16;6.70;92.80
21637;DHT22;10980;49.596;6.142;2023-02-15T14:59:56;6.90;92.50
21637;DHT22;10980;49.596;6.142;2023-02-15T15:03:25;6.80;92.60
21637;DHT22;10980;49.596;6.142;2023-02-15T15:06:59;6.90;92.60
21637;DHT22;10980;49.596;6.142;2023-02-15T15:10:44;6.90;92.50
21637;DHT22;10980;49.596;6.142;2023-02-15T15:14:08;6.90;92.90
21637;DHT22;10980;49.596;6.142;2023-02-15T15:21:01;7.10;92.20
21637;DHT22;10980;49.596;6.142;2023-02-15T15:28:01;7.20;91.40
21637;DHT22;10980;49.596;6.142;2023-02-15T15:39:05;7.30;91.20
21637;DHT22;10980;49.596;6.142;2023-02-15T15:50:53;6.80;91.90
21637;DHT22;10980;49.596;6.142;2023-02-15T15:54:26;6.70;92.00
21637;DHT22;10980;49.596;6.142;2023-02-15T15:58:03;6.70;92.10
21637;DHT22;10980;49.596;6.142;2023-02-15T16:01:38;6.50;92.40
21637;DHT22;10980;49.596;6.142;2023-02-15T16:05:08;6.50;92.40
21637;DHT22;10980;49.596;6.142;2023-02-15T16:08:37;6.50;92.80
21637;DHT22;10980;49.596;6.142;2023-02-15T16:12:01;6.40;92.90
21637;DHT22;10980;49.596;6.142;2023-02-15T16:15:36;6.30;93.00
21637;DHT22;10980;49.596;6.142;2023-02-15T16:19:22;6.20;93.30
21637;DHT22;10980;49.596;6.142;2023-02-15T16:27:02;5.90;94.00
21637;DHT22;10980;49.596;6.142;2023-02-15T16:30:35;5.40;95.10
21637;DHT22;10980;49.596;6.142;2023-02-15T16:34:28;5.30;95.80
21637;DHT22;10980;49.596;6.142;2023-02-15T16:37:53;5.60;95.50
21637;DHT22;10980;49.596;6.142;2023-02-15T16:41:23;5.10;95.90
21637;DHT22;10980;49.596;6.142;2023-02-15T16:48:32;4.80;97.20
21637;DHT22;10980;49.596;6.142;2023-02-15T16:52:02;4.50;98.10
21637;DHT22;10980;49.596;6.142;2023-02-15T16:55:39;4.40;99.00
21637;DHT22;10980;49.596;6.142;2023-02-15T16:59:04;4.30;99.50
21637;DHT22;10980;49.596;6.142;2023-02-15T17:02:28;4.10;99.90
21637;DHT22;10980;49.596;6.142;2023-02-15T17:06:22;4.00;99.90
21637;DHT22;10980;49.596;6.142;2023-02-15T17:09:51;3.80;99.90
21637;DHT22;10980;49.596;6.142;2023-02-15T17:13:25;3.80;99.90
21637;DHT22;10980;49.596;6.142;2023-02-15T17:17:12;3.60;99.90
21637;DHT22;10980;49.596;6.142;2023-02-15T17:20:38;3.50;99.90
21637;DHT22;10980;49.596;6.142;2023-02-15T17:24:04;3.30;99.90
21637;DHT22;10980;49.596;6.142;2023-02-15T17:27:32;3.10;99.90
21637;DHT22;10980;49.596;6.142;2023-02-15T17:30:57;3.10;99.90
21637;DHT22;10980;49.596;6.142;2023-02-15T17:38:24;2.90;99.90
21637;DHT22;10980;49.596;6.142;2023-02-15T17:41:46;2.70;99.90
21637;DHT22;10980;49.596;6.142;2023-02-15T17:45:08;2.60;99.90
21637;DHT22;10980;49.596;6.142;2023-02-15T17:48:36;2.60;99.90
21637;DHT22;10980;49.596;6.142;2023-02-15T17:52:05;2.70;99.90
21637;DHT22;10980;49.596;6.142;2023-02-15T17:55:28;2.50;99.90
21637;DHT22;10980;49.596;6.142;2023-02-15T17:58:56;2.40;99.90
21637;DHT22;10980;49.596;6.142;2023-02-15T18:02:19;2.30;99.90
21637;DHT22;10980;49.596;6.142;2023-02-15T18:06:00;2.30;99.90
21637;DHT22;10980;49.596;6.142;2023-02-15T18:09:41;2.10;99.90
21637;DHT22;10980;49.596;6.142;2023-02-15T18:13:22;1.90;99.90
21637;DHT22;10980;49.596;6.142;2023-02-15T18:16:44;1.80;99.90
21637;DHT22;10980;49.596;6.142;2023-02-15T18:20:25;1.70;99.90
21637;DHT22;10980;49.596;6.142;2023-02-15T18:23:51;1.60;99.90
21637;DHT22;10980;49.596;6.142;2023-02-15T18:27:15;1.70;99.90
21637;DHT22;10980;49.596;6.142;2023-02-15T18:30:39;1.50;99.90
21637;DHT22;10980;49.596;6.142;2023-02-15T18:34:06;1.60;99.90
21637;DHT22;10980;49.596;6.142;2023-02-15T18:37:41;1.40;99.90
21637;DHT22;10980;49.596;6.142;2023-02-15T18:41:05;1.40;99.90
21637;DHT22;10980;49.596;6.142;2023-02-15T18:44:30;1.40;99.90
21637;DHT22;10980;49.596;6.142;2023-02-15T18:47:54;1.50;99.90
21637;DHT22;10980;49.596;6.142;2023-02-15T18:51:22;1.60;99.90
21637;DHT22;10980;49.596;6.142;2023-02-15T18:54:45;1.30;99.90
21637;DHT22;10980;49.596;6.142;2023-02-15T18:58:18;1.30;99.90
21637;DHT22;10980;49.596;6.142;2023-02-15T19:01:42;1.40;99.90
21637;DHT22;10980;49.596;6.142;2023-02-15T19:05:05;1.10;99.90
21637;DHT22;10980;49.596;6.142;2023-02-15T19:08:28;0.90;99.90
21637;DHT22;10980;49.596;6.142;2023-02-15T19:11:52;0.70;99.90
21637;DHT22;10980;49.596;6.142;2023-02-15T19:15:33;0.80;99.90
21637;DHT22;10980;49.596;6.142;2023-02-15T19:18:55;0.70;99.90
21637;DHT22;10980;49.596;6.142;2023-02-15T19:22:24;0.70;99.90
21637;DHT22;10980;49.596;6.142;2023-02-15T19:25:52;0.60;99.90
21637;DHT22;10980;49.596;6.142;2023-02-15T19:29:25;0.50;99.90
21637;DHT22;10980;49.596;6.142;2023-02-15T19:32:50;0.50;99.90
21637;DHT22;10980;49.596;6.142;2023-02-15T19:36:18;0.40;99.90
21637;DHT22;10980;49.596;6.142;2023-02-15T19:39:43;0.50;99.90
21637;DHT22;10980;49.596;6.142;2023-02-15T19:43:15;0.50;99.90
21637;DHT22;10980;49.596;6.142;2023-02-15T19:46:38;0.40;99.90
21637;DHT22;10980;49.596;6.142;2023-02-15T19:50:01;0.40;99.90
21637;DHT22;10980;49.596;6.142;2023-02-15T19:53:26;0.10;99.90
21637;DHT22;10980;49.596;6.142;2023-02-15T19:56:49;0.10;99.90
21637;DHT22;10980;49.596;6.142;2023-02-15T20:00:20;0.10;99.90
21637;DHT22;10980;49.596;6.142;2023-02-15T20:03:45;0.00;99.90
21637;DHT22;10980;49.596;6.142;2023-02-15T20:07:35;0.10;99.90
21637;DHT22;10980;49.596;6.142;2023-02-15T20:10:56;0.00;99.90
21637;DHT22;10980;49.596;6.142;2023-02-15T20:14:20;-0.30;99.90
21637;DHT22;10980;49.596;6.142;2023-02-15T20:17:50;-0.20;99.90
21637;DHT22;10980;49.596;6.142;2023-02-15T20:21:14;-0.10;99.90
21637;DHT22;10980;49.596;6.142;2023-02-15T20:24:36;-0.10;99.90
21637;DHT22;10980;49.596;6.142;2023-02-15T20:27:59;-0.20;99.90
21637;DHT22;10980;49.596;6.142;2023-02-15T20:31:22;-0.20;99.90
21637;DHT22;10980;49.596;6.142;2023-02-15T20:34:46;-0.30;99.90
21637;DHT22;10980;49.596;6.142;2023-02-15T20:38:20;-0.50;99.90
21637;DHT22;10980;49.596;6.142;2023-02-15T20:47:37;4.20;99.90
21637;DHT22;10980;49.596;6.142;2023-02-15T20:51:15;2.40;99.90
21637;DHT22;10980;49.596;6.142;2023-02-15T20:54:39;1.60;99.90
21637;DHT22;10980;49.596;6.142;2023-02-15T20:58:23;0.90;99.90
21637;DHT22;10980;49.596;6.142;2023-02-15T21:01:51;0.60;99.90
21637;DHT22;10980;49.596;6.142;2023-02-15T21:05:22;0.50;99.90
21637;DHT22;10980;49.596;6.142;2023-02-15T21:08:45;0.30;99.90
21637;DHT22;10980;49.596;6.142;2023-02-15T21:12:12;0.00;99.90
21637;DHT22;10980;49.596;6.142;2023-02-15T21:15:38;-0.10;99.90
21637;DHT22;10980;49.596;6.142;2023-02-15T21:19:00;-0.20;99.90
21637;DHT22;10980;49.596;6.142;2023-02-15T21:22:23;0.00;99.90
21637;DHT22;10980;49.596;6.142;2023-02-15T21:25:46;-0.30;99.90
21637;DHT22;10980;49.596;6.142;2023-02-15T21:29:23;-0.40;99.90
21637;DHT22;10980;49.596;6.142;2023-02-15T21:32:48;-0.50;99.90
21637;DHT22;10980;49.596;6.142;2023-02-15T21:36:22;-0.50;99.90
21637;DHT22;10980;49.596;6.142;2023-02-15T21:39:46;-0.40;99.90
21637;DHT22;10980;49.596;6.142;2023-02-15T21:43:18;-0.30;99.90
21637;DHT22;10980;49.596;6.142;2023-02-15T21:47:04;-0.50;99.90
21637;DHT22;10980;49.596;6.142;2023-02-15T21:50:45;-0.40;99.90
21637;DHT22;10980;49.596;6.142;2023-02-15T21:54:27;-0.40;99.90
21637;DHT22;10980;49.596;6.142;2023-02-15T21:57:50;-0.50;99.90
21637;DHT22;10980;49.596;6.142;2023-02-15T22:01:23;-0.50;99.90
21637;DHT22;10980;49.596;6.142;2023-02-15T22:04:47;-0.30;99.90
21637;DHT22;10980;49.596;6.142;2023-02-15T22:08:12;-0.30;99.90
21637;DHT22;10980;49.596;6.142;2023-02-15T22:11:36;-0.40;99.90
21637;DHT22;10980;49.596;6.142;2023-02-15T22:15:00;-0.30;99.90
21637;DHT22;10980;49.596;6.142;2023-02-15T22:18:31;-0.30;99.90
21637;DHT22;10980;49.596;6.142;2023-02-15T22:21:56;-0.70;99.90
21637;DHT22;10980;49.596;6.142;2023-02-15T22:25:21;-0.70;99.90
21637;DHT22;10980;49.596;6.142;2023-02-15T22:28:45;-0.70;99.90
21637;DHT22;10980;49.596;6.142;2023-02-15T22:32:19;-0.80;99.90
21637;DHT22;10980;49.596;6.142;2023-02-15T22:35:43;-0.90;99.90
21637;DHT22;10980;49.596;6.142;2023-02-15T22:39:05;-1.10;99.90
21637;DHT22;10980;49.596;6.142;2023-02-15T22:42:27;-1.00;99.90
21637;DHT22;10980;49.596;6.142;2023-02-15T22:45:49;-0.90;99.90
21637;DHT22;10980;49.596;6.142;2023-02-15T22:49:12;-1.00;99.90
21637;DHT22;10980;49.596;6.142;2023-02-15T22:52:36;-1.20;99.90
21637;DHT22;10980;49.596;6.142;2023-02-15T22:56:01;-1.20;99.90
21637;DHT22;10980;49.596;6.142;2023-02-15T22:59:27;-1.20;99.90
21637;DHT22;10980;49.596;6.142;2023-02-15T23:02:54;-1.40;99.90
21637;DHT22;10980;49.596;6.142;2023-02-15T23:06:17;-1.40;99.90
21637;DHT22;10980;49.596;6.142;2023-02-15T23:09:46;-1.60;99.90
21637;DHT22;10980;49.596;6.142;2023-02-15T23:13:21;-1.50;99.90
21637;DHT22;10980;49.596;6.142;2023-02-15T23:16:47;-1.30;99.90
21637;DHT22;10980;49.596;6.142;2023-02-15T23:20:14;-1.50;99.90
21637;DHT22;10980;49.596;6.142;2023-02-15T23:23:39;-1.60;99.90
21637;DHT22;10980;49.596;6.142;2023-02-15T23:27:02;-1.60;99.90
21637;DHT22;10980;49.596;6.142;2023-02-15T23:30:57;-1.60;99.90
21637;DHT22;10980;49.596;6.142;2023-02-15T23:34:22;-1.70;99.90
21637;DHT22;10980;49.596;6.142;2023-02-15T23:37:47;-1.60;99.90
21637;DHT22;10980;49.596;6.142;2023-02-15T23:41:10;-1.70;99.90
21637;DHT22;10980;49.596;6.142;2023-02-15T23:44:43;-1.70;99.90
21637;DHT22;10980;49.596;6.142;2023-02-15T23:48:36;-1.60;99.90
21637;DHT22;10980;49.596;6.142;2023-02-15T23:51:59;-1.60;99.90
21637;DHT22;10980;49.596;6.142;2023-02-15T23:55:27;-1.60;99.90
21637;DHT22;10980;49.596;6.142;2023-02-15T23:58:56;-1.70;99.90
